sensor_id;sensor_type;location;lat;lon;timestamp;pressure;altitude;pressure_sealevel;temperature;humidity
58534;BME280;44109;52.398;7.024;2023-08-30T00:02:31;100629.31;;;15.47;100.00
58534;BME280;44109;52.398;7.024;2023-08-30T00:05:00;100627.34;;;15.41;100.00
58534;BME280;44109;52.398;7.024;2023-08-30T00:07:29;100621.78;;;15.34;100.00
58534;BME280;44109;52.398;7.024;2023-08-30T00:09:58;100617.47;;;15.22;100.00
58534;BME280;44109;52.398;7.024;2023-08-30T00:12:25;100615.50;;;15.15;100.00
58534;BME280;44109;52.398;7.024;2023-08-30T00:14:54;100620.34;;;15.04;100.00
58534;BME280;44109;52.398;7.024;2023-08-30T00:17:22;100617.94;;;15.03;100.00
58534;BME280;44109;52.398;7.024;2023-08-30T00:19:50;100614.75;;;14.93;100.00
58534;BME280;44109;52.398;7.024;2023-08-30T00:22:19;100613.22;;;14.85;100.00
58534;BME280;44109;52.398;7.024;2023-08-30T00:24:48;100604.84;;;14.75;100.00
58534;BME280;44109;52.398;7.024;2023-08-30T00:27:15;100610.84;;;14.69;100.00
58534;BME280;44109;52.398;7.024;2023-08-30T00:29:43;100614.84;;;14.65;100.00
58534;BME280;44109;52.398;7.024;2023-08-30T00:32:12;100617.66;;;14.58;100.00
58534;BME280;44109;52.398;7.024;2023-08-30T00:34:39;100614.88;;;14.51;100.00
58534;BME280;44109;52.398;7.024;2023-08-30T00:37:07;100614.84;;;14.43;100.00
58534;BME280;44109;52.398;7.024;2023-08-30T00:39:37;100609.28;;;14.36;100.00
58534;BME280;44109;52.398;7.024;2023-08-30T00:42:05;100612.50;;;14.31;100.00
58534;BME280;44109;52.398;7.024;2023-08-30T00:44:33;100612.50;;;14.24;100.00
58534;BME280;44109;52.398;7.024;2023-08-30T00:47:01;100605.72;;;14.18;100.00
58534;BME280;44109;52.398;7.024;2023-08-30T00:49:31;100613.69;;;14.12;100.00
58534;BME280;44109;52.398;7.024;2023-08-30T00:52:01;100606.13;;;14.06;100.00
58534;BME280;44109;52.398;7.024;2023-08-30T00:54:32;100601.72;;;13.98;100.00
58534;BME280;44109;52.398;7.024;2023-08-30T00:57:00;100599.75;;;13.91;100.00
58534;BME280;44109;52.398;7.024;2023-08-30T00:59:29;100603.72;;;13.83;100.00
58534;BME280;44109;52.398;7.024;2023-08-30T01:02:01;100600.13;;;13.82;100.00
58534;BME280;44109;52.398;7.024;2023-08-30T01:04:31;100601.72;;;13.80;100.00
58534;BME280;44109;52.398;7.024;2023-08-30T01:06:58;100610.06;;;13.76;100.00
58534;BME280;44109;52.398;7.024;2023-08-30T01:09:26;100601.31;;;13.70;100.00
58534;BME280;44109;52.398;7.024;2023-08-30T01:11:58;100596.53;;;13.67;100.00
58534;BME280;44109;52.398;7.024;2023-08-30T01:14:34;100600.09;;;13.61;100.00
58534;BME280;44109;52.398;7.024;2023-08-30T01:17:07;100598.91;;;13.55;100.00
58534;BME280;44109;52.398;7.024;2023-08-30T01:19:48;100595.72;;;13.49;100.00
58534;BME280;44109;52.398;7.024;2023-08-30T01:22:29;100602.09;;;13.50;100.00
58534;BME280;44109;52.398;7.024;2023-08-30T01:25:15;100607.25;;;13.48;100.00
58534;BME280;44109;52.398;7.024;2023-08-30T01:27:54;100598.06;;;13.43;100.00
58534;BME280;44109;52.398;7.024;2023-08-30T01:30:24;100606.44;;;13.40;100.00
58534;BME280;44109;52.398;7.024;2023-08-30T01:32:54;100605.63;;;13.39;100.00
58534;BME280;44109;52.398;7.024;2023-08-30T01:35:22;100597.25;;;13.32;100.00
58534;BME280;44109;52.398;7.024;2023-08-30T01:37:51;100596.44;;;13.28;100.00
58534;BME280;44109;52.398;7.024;2023-08-30T01:40:20;100597.63;;;13.24;100.00
58534;BME280;44109;52.398;7.024;2023-08-30T01:42:48;100594.41;;;13.18;100.00
58534;BME280;44109;52.398;7.024;2023-08-30T01:45:20;100583.66;;;13.13;100.00
58534;BME280;44109;52.398;7.024;2023-08-30T01:47:50;100585.22;;;13.10;100.00
58534;BME280;44109;52.398;7.024;2023-08-30T01:50:20;100586.00;;;13.11;100.00
58534;BME280;44109;52.398;7.024;2023-08-30T01:52:49;100593.97;;;13.09;100.00
58534;BME280;44109;52.398;7.024;2023-08-30T01:55:20;100595.94;;;13.05;100.00
58534;BME280;44109;52.398;7.024;2023-08-30T01:57:49;100589.94;;;13.03;100.00
58534;BME280;44109;52.398;7.024;2023-08-30T02:00:18;100585.19;;;13.00;100.00
58534;BME280;44109;52.398;7.024;2023-08-30T02:02:48;100586.78;;;13.01;100.00
58534;BME280;44109;52.398;7.024;2023-08-30T02:05:15;100583.97;;;12.97;100.00
58534;BME280;44109;52.398;7.024;2023-08-30T02:07:49;100583.94;;;12.93;100.00
58534;BME280;44109;52.398;7.024;2023-08-30T02:10:23;100578.38;;;12.90;100.00
58534;BME280;44109;52.398;7.024;2023-08-30T02:12:54;100581.91;;;12.83;100.00
58534;BME280;44109;52.398;7.024;2023-08-30T02:15:26;100579.09;;;12.80;100.00
58534;BME280;44109;52.398;7.024;2023-08-30T02:17:56;100583.50;;;12.77;100.00
58534;BME280;44109;52.398;7.024;2023-08-30T02:20:24;100580.28;;;12.75;100.00
58534;BME280;44109;52.398;7.024;2023-08-30T02:22:52;100586.66;;;12.72;100.00
58534;BME280;44109;52.398;7.024;2023-08-30T02:25:21;100585.03;;;12.67;100.00
58534;BME280;44109;52.398;7.024;2023-08-30T02:27:50;100574.28;;;12.66;100.00
58534;BME280;44109;52.398;7.024;2023-08-30T02:30:17;100586.19;;;12.66;100.00
58534;BME280;44109;52.398;7.024;2023-08-30T02:32:47;100582.63;;;12.66;100.00
58534;BME280;44109;52.398;7.024;2023-08-30T02:35:14;100573.91;;;12.67;100.00
58534;BME280;44109;52.398;7.024;2023-08-30T02:37:42;100569.53;;;12.70;100.00
58534;BME280;44109;52.398;7.024;2023-08-30T02:40:11;100572.31;;;12.70;100.00
58534;BME280;44109;52.398;7.024;2023-08-30T02:42:38;100584.22;;;12.70;100.00
58534;BME280;44109;52.398;7.024;2023-08-30T02:45:07;100577.47;;;12.68;100.00
58534;BME280;44109;52.398;7.024;2023-08-30T02:47:36;100569.09;;;12.61;100.00
58534;BME280;44109;52.398;7.024;2023-08-30T02:50:05;100578.66;;;12.63;100.00
58534;BME280;44109;52.398;7.024;2023-08-30T02:52:33;100579.03;;;12.58;100.00
58534;BME280;44109;52.398;7.024;2023-08-30T02:55:01;100579.38;;;12.57;100.00
58534;BME280;44109;52.398;7.024;2023-08-30T02:57:29;100572.59;;;12.51;100.00
58534;BME280;44109;52.398;7.024;2023-08-30T02:59:56;100565.00;;;12.40;100.00
58534;BME280;44109;52.398;7.024;2023-08-30T03:02:24;100565.41;;;12.42;100.00
58534;BME280;44109;52.398;7.024;2023-08-30T03:04:52;100561.00;;;12.38;100.00
58534;BME280;44109;52.398;7.024;2023-08-30T03:07:21;100558.63;;;12.36;100.00
58534;BME280;44109;52.398;7.024;2023-08-30T03:09:52;100547.44;;;12.29;100.00
58534;BME280;44109;52.398;7.024;2023-08-30T03:12:20;100553.00;;;12.29;100.00
58534;BME280;44109;52.398;7.024;2023-08-30T03:14:47;100541.84;;;12.22;100.00
58534;BME280;44109;52.398;7.024;2023-08-30T03:17:15;100552.56;;;12.24;100.00
58534;BME280;44109;52.398;7.024;2023-08-30T03:19:43;100552.16;;;12.25;100.00
58534;BME280;44109;52.398;7.024;2023-08-30T03:22:10;100540.28;;;12.28;100.00
58534;BME280;44109;52.398;7.024;2023-08-30T03:24:39;100545.88;;;12.32;100.00
58534;BME280;44109;52.398;7.024;2023-08-30T03:27:07;100527.56;;;12.31;100.00
58534;BME280;44109;52.398;7.024;2023-08-30T03:29:35;100538.81;;;12.45;100.00
58534;BME280;44109;52.398;7.024;2023-08-30T03:32:02;100538.03;;;12.52;100.00
58534;BME280;44109;52.398;7.024;2023-08-30T03:34:30;100548.03;;;12.63;100.00
58534;BME280;44109;52.398;7.024;2023-08-30T03:36:58;100527.38;;;12.68;100.00
58534;BME280;44109;52.398;7.024;2023-08-30T03:39:25;100532.97;;;12.79;100.00
58534;BME280;44109;52.398;7.024;2023-08-30T03:41:54;100530.63;;;12.84;100.00
58534;BME280;44109;52.398;7.024;2023-08-30T03:44:22;100520.69;;;12.87;100.00
58534;BME280;44109;52.398;7.024;2023-08-30T03:46:50;100521.44;;;12.80;100.00
58534;BME280;44109;52.398;7.024;2023-08-30T03:49:17;100520.63;;;12.76;100.00
58534;BME280;44109;52.398;7.024;2023-08-30T03:51:45;100527.78;;;12.70;100.00
58534;BME280;44109;52.398;7.024;2023-08-30T03:54:13;100523.38;;;12.65;100.00
58534;BME280;44109;52.398;7.024;2023-08-30T03:56:42;100531.72;;;12.62;100.00
58534;BME280;44109;52.398;7.024;2023-08-30T03:59:11;100525.75;;;12.60;100.00
58534;BME280;44109;52.398;7.024;2023-08-30T04:01:39;100526.56;;;12.64;100.00
58534;BME280;44109;52.398;7.024;2023-08-30T04:04:06;100513.44;;;12.64;100.00
58534;BME280;44109;52.398;7.024;2023-08-30T04:06:34;100520.66;;;12.73;100.00
58534;BME280;44109;52.398;7.024;2023-08-30T04:09:02;100506.31;;;12.74;100.00
58534;BME280;44109;52.398;7.024;2023-08-30T04:11:29;100512.31;;;12.83;100.00
58534;BME280;44109;52.398;7.024;2023-08-30T04:13:57;100495.25;;;12.88;100.00
58534;BME280;44109;52.398;7.024;2023-08-30T04:16:26;100503.19;;;12.93;100.00
58534;BME280;44109;52.398;7.024;2023-08-30T04:18:53;100500.03;;;12.91;100.00
58534;BME280;44109;52.398;7.024;2023-08-30T04:21:21;100494.44;;;12.88;100.00
58534;BME280;44109;52.398;7.024;2023-08-30T04:23:49;100494.44;;;12.84;100.00
58534;BME280;44109;52.398;7.024;2023-08-30T04:26:17;100493.63;;;12.80;100.00
58534;BME280;44109;52.398;7.024;2023-08-30T04:28:44;100507.91;;;12.75;100.00
58534;BME280;44109;52.398;7.024;2023-08-30T04:31:12;100497.94;;;12.67;100.00
58534;BME280;44109;52.398;7.024;2023-08-30T04:33:41;100492.38;;;12.63;100.00
58534;BME280;44109;52.398;7.024;2023-08-30T04:36:08;100492.75;;;12.58;100.00
58534;BME280;44109;52.398;7.024;2023-08-30T04:38:36;100484.78;;;12.50;100.00
58534;BME280;44109;52.398;7.024;2023-08-30T04:41:03;100492.69;;;12.48;100.00
58534;BME280;44109;52.398;7.024;2023-08-30T04:43:31;100487.94;;;12.44;100.00
58534;BME280;44109;52.398;7.024;2023-08-30T04:45:59;100476.81;;;12.44;100.00
58534;BME280;44109;52.398;7.024;2023-08-30T04:48:26;100479.97;;;12.47;100.00
58534;BME280;44109;52.398;7.024;2023-08-30T04:51:03;100470.47;;;12.51;100.00
58534;BME280;44109;52.398;7.024;2023-08-30T04:53:31;100466.47;;;12.52;100.00
58534;BME280;44109;52.398;7.024;2023-08-30T04:55:59;100471.72;;;12.68;100.00
58534;BME280;44109;52.398;7.024;2023-08-30T04:58:27;100470.53;;;12.76;100.00
58534;BME280;44109;52.398;7.024;2023-08-30T05:00:56;100463.00;;;12.80;100.00
58534;BME280;44109;52.398;7.024;2023-08-30T05:03:24;100465.03;;;12.90;100.00
58534;BME280;44109;52.398;7.024;2023-08-30T05:05:51;100467.44;;;13.06;100.00
58534;BME280;44109;52.398;7.024;2023-08-30T05:08:20;100457.13;;;13.14;100.00
58534;BME280;44109;52.398;7.024;2023-08-30T05:10:48;100449.97;;;13.20;100.00
58534;BME280;44109;52.398;7.024;2023-08-30T05:13:16;100449.97;;;13.20;100.00
58534;BME280;44109;52.398;7.024;2023-08-30T05:15:44;100449.56;;;13.21;100.00
58534;BME280;44109;52.398;7.024;2023-08-30T05:18:11;100451.56;;;13.17;100.00
58534;BME280;44109;52.398;7.024;2023-08-30T05:20:39;100453.13;;;13.15;100.00
58534;BME280;44109;52.398;7.024;2023-08-30T05:23:06;100445.97;;;13.10;100.00
58534;BME280;44109;52.398;7.024;2023-08-30T05:25:35;100455.91;;;13.08;100.00
58534;BME280;44109;52.398;7.024;2023-08-30T05:28:03;100450.72;;;13.06;100.00
58534;BME280;44109;52.398;7.024;2023-08-30T05:30:31;100452.34;;;13.04;100.00
58534;BME280;44109;52.398;7.024;2023-08-30T05:32:58;100453.13;;;13.01;100.00
58534;BME280;44109;52.398;7.024;2023-08-30T05:35:26;100453.13;;;13.01;100.00
58534;BME280;44109;52.398;7.024;2023-08-30T05:37:53;100449.91;;;12.99;100.00
58534;BME280;44109;52.398;7.024;2023-08-30T05:40:21;100453.50;;;13.03;100.00
58534;BME280;44109;52.398;7.024;2023-08-30T05:42:51;100448.34;;;13.05;100.00
58534;BME280;44109;52.398;7.024;2023-08-30T05:45:21;100455.13;;;13.14;100.00
58534;BME280;44109;52.398;7.024;2023-08-30T05:47:48;100437.22;;;13.19;100.00
58534;BME280;44109;52.398;7.024;2023-08-30T05:50:16;100446.03;;;13.42;100.00
58534;BME280;44109;52.398;7.024;2023-08-30T05:52:44;100442.84;;;13.55;100.00
58534;BME280;44109;52.398;7.024;2023-08-30T05:55:11;100445.59;;;13.76;100.00
58534;BME280;44109;52.398;7.024;2023-08-30T05:57:39;100443.59;;;13.94;100.00
58534;BME280;44109;52.398;7.024;2023-08-30T06:00:09;100441.13;;;14.18;100.00
58534;BME280;44109;52.398;7.024;2023-08-30T06:02:39;100438.66;;;14.45;100.00
58534;BME280;44109;52.398;7.024;2023-08-30T06:05:08;100435.75;;;14.70;100.00
58534;BME280;44109;52.398;7.024;2023-08-30T06:07:36;100434.44;;;14.92;100.00
58534;BME280;44109;52.398;7.024;2023-08-30T06:10:04;100435.09;;;15.11;100.00
58534;BME280;44109;52.398;7.024;2023-08-30T06:12:32;100431.84;;;15.23;100.00
58534;BME280;44109;52.398;7.024;2023-08-30T06:15:00;100439.88;;;15.62;100.00
58534;BME280;44109;52.398;7.024;2023-08-30T06:17:29;100435.22;;;15.93;100.00
58534;BME280;44109;52.398;7.024;2023-08-30T06:19:56;100448.28;;;16.41;100.00
58534;BME280;44109;52.398;7.024;2023-08-30T06:22:24;100452.59;;;16.80;100.00
58534;BME280;44109;52.398;7.024;2023-08-30T06:24:51;100450.06;;;16.89;100.00
58534;BME280;44109;52.398;7.024;2023-08-30T06:27:19;100456.59;;;17.37;100.00
58534;BME280;44109;52.398;7.024;2023-08-30T06:29:47;100450.09;;;17.67;100.00
58534;BME280;44109;52.398;7.024;2023-08-30T06:32:14;100443.81;;;17.83;100.00
58534;BME280;44109;52.398;7.024;2023-08-30T06:34:44;100441.22;;;18.35;100.00
58534;BME280;44109;52.398;7.024;2023-08-30T06:37:12;100443.69;;;18.89;100.00
58534;BME280;44109;52.398;7.024;2023-08-30T06:39:39;100429.66;;;19.06;100.00
58534;BME280;44109;52.398;7.024;2023-08-30T06:42:07;100435.84;;;19.49;100.00
58534;BME280;44109;52.398;7.024;2023-08-30T06:44:34;100425.75;;;19.97;100.00
58534;BME280;44109;52.398;7.024;2023-08-30T06:47:02;100428.47;;;20.30;100.00
58534;BME280;44109;52.398;7.024;2023-08-30T06:49:30;100420.81;;;20.60;100.00
58534;BME280;44109;52.398;7.024;2023-08-30T06:51:59;100404.59;;;20.89;100.00
58534;BME280;44109;52.398;7.024;2023-08-30T06:54:29;100393.44;;;20.98;100.00
58534;BME280;44109;52.398;7.024;2023-08-30T06:57:00;100390.59;;;21.24;100.00
58534;BME280;44109;52.398;7.024;2023-08-30T06:59:28;100383.31;;;21.61;100.00
58534;BME280;44109;52.398;7.024;2023-08-30T07:01:56;100377.97;;;21.76;100.00
58534;BME280;44109;52.398;7.024;2023-08-30T07:04:23;100388.31;;;21.79;100.00
58534;BME280;44109;52.398;7.024;2023-08-30T07:06:52;100380.63;;;22.14;100.00
58534;BME280;44109;52.398;7.024;2023-08-30T07:09:21;100369.28;;;22.58;100.00
58534;BME280;44109;52.398;7.024;2023-08-30T07:11:54;100367.69;;;22.88;100.00
58534;BME280;44109;52.398;7.024;2023-08-30T07:14:22;100369.84;;;23.15;100.00
58534;BME280;44109;52.398;7.024;2023-08-30T07:16:50;100363.56;;;23.29;100.00
58534;BME280;44109;52.398;7.024;2023-08-30T07:19:17;100356.63;;;22.72;100.00
58534;BME280;44109;52.398;7.024;2023-08-30T07:21:45;100358.88;;;23.36;100.00
58534;BME280;44109;52.398;7.024;2023-08-30T07:24:12;100363.47;;;23.51;100.00
58534;BME280;44109;52.398;7.024;2023-08-30T07:26:41;100368.44;;;23.29;100.00
58534;BME280;44109;52.398;7.024;2023-08-30T07:29:09;100357.16;;;23.57;100.00
58534;BME280;44109;52.398;7.024;2023-08-30T07:31:36;100365.56;;;23.69;100.00
58534;BME280;44109;52.398;7.024;2023-08-30T07:34:04;100365.03;;;23.62;100.00
58534;BME280;44109;52.398;7.024;2023-08-30T07:36:32;100360.31;;;23.49;100.00
58534;BME280;44109;52.398;7.024;2023-08-30T07:38:59;100356.88;;;23.64;100.00
58534;BME280;44109;52.398;7.024;2023-08-30T07:41:27;100352.66;;;23.68;100.00
58534;BME280;44109;52.398;7.024;2023-08-30T07:43:56;100348.38;;;23.45;100.00
58534;BME280;44109;52.398;7.024;2023-08-30T07:46:23;100354.00;;;23.36;100.00
58534;BME280;44109;52.398;7.024;2023-08-30T07:48:52;100351.50;;;23.57;100.00
58534;BME280;44109;52.398;7.024;2023-08-30T07:51:19;100351.19;;;23.45;100.00
58534;BME280;44109;52.398;7.024;2023-08-30T07:53:47;100355.53;;;23.19;100.00
58534;BME280;44109;52.398;7.024;2023-08-30T07:56:15;100353.97;;;23.18;100.00
58534;BME280;44109;52.398;7.024;2023-08-30T07:58:42;100352.84;;;23.15;100.00
58534;BME280;44109;52.398;7.024;2023-08-30T08:01:11;100355.09;;;22.80;100.00
58534;BME280;44109;52.398;7.024;2023-08-30T08:03:39;100353.28;;;22.64;100.00
58534;BME280;44109;52.398;7.024;2023-08-30T08:06:07;100355.97;;;21.93;100.00
58534;BME280;44109;52.398;7.024;2023-08-30T08:08:35;100359.91;;;21.95;100.00
58534;BME280;44109;52.398;7.024;2023-08-30T08:11:02;100360.44;;;21.81;100.00
58534;BME280;44109;52.398;7.024;2023-08-30T08:13:30;100356.75;;;21.71;100.00
58534;BME280;44109;52.398;7.024;2023-08-30T08:15:58;100362.31;;;21.62;100.00
58534;BME280;44109;52.398;7.024;2023-08-30T08:18:27;100350.47;;;21.55;100.00
58534;BME280;44109;52.398;7.024;2023-08-30T08:20:54;100355.84;;;21.27;100.00
58534;BME280;44109;52.398;7.024;2023-08-30T08:23:22;100343.53;;;21.21;100.00
58534;BME280;44109;52.398;7.024;2023-08-30T08:25:57;100345.81;;;21.00;100.00
58534;BME280;44109;52.398;7.024;2023-08-30T08:28:25;100345.81;;;21.00;100.00
58534;BME280;44109;52.398;7.024;2023-08-30T08:30:52;100349.13;;;20.99;100.00
58534;BME280;44109;52.398;7.024;2023-08-30T08:33:20;100357.22;;;20.97;100.00
58534;BME280;44109;52.398;7.024;2023-08-30T08:35:50;100348.22;;;20.89;100.00
58534;BME280;44109;52.398;7.024;2023-08-30T08:38:18;100341.91;;;20.72;100.00
58534;BME280;44109;52.398;7.024;2023-08-30T08:40:45;100345.91;;;20.46;100.00
58534;BME280;44109;52.398;7.024;2023-08-30T08:43:14;100338.50;;;20.52;100.00
58534;BME280;44109;52.398;7.024;2023-08-30T08:45:45;100341.56;;;20.58;100.00
58534;BME280;44109;52.398;7.024;2023-08-30T08:48:14;100350.13;;;20.54;100.00
58534;BME280;44109;52.398;7.024;2023-08-30T08:50:43;100343.44;;;20.48;100.00
58534;BME280;44109;52.398;7.024;2023-08-30T08:53:13;100350.63;;;20.36;100.00
58534;BME280;44109;52.398;7.024;2023-08-30T08:55:43;100345.44;;;20.35;100.00
58534;BME280;44109;52.398;7.024;2023-08-30T08:58:13;100344.50;;;20.25;100.00
58534;BME280;44109;52.398;7.024;2023-08-30T09:00:42;100336.94;;;20.09;100.00
58534;BME280;44109;52.398;7.024;2023-08-30T09:03:10;100348.88;;;20.00;100.00
58534;BME280;44109;52.398;7.024;2023-08-30T09:05:38;100349.31;;;20.12;100.00
58534;BME280;44109;52.398;7.024;2023-08-30T09:08:09;100343.88;;;20.46;100.00
58534;BME280;44109;52.398;7.024;2023-08-30T09:10:40;100347.66;;;20.69;100.00
58534;BME280;44109;52.398;7.024;2023-08-30T09:13:08;100342.69;;;20.73;100.00
58534;BME280;44109;52.398;7.024;2023-08-30T09:15:36;100347.44;;;20.76;100.00
58534;BME280;44109;52.398;7.024;2023-08-30T09:18:04;100348.69;;;20.20;100.00
58534;BME280;44109;52.398;7.024;2023-08-30T09:20:31;100342.38;;;20.29;100.00
58534;BME280;44109;52.398;7.024;2023-08-30T09:22:59;100347.09;;;20.19;100.00
58534;BME280;44109;52.398;7.024;2023-08-30T09:25:27;100338.00;;;19.86;100.00
58534;BME280;44109;52.398;7.024;2023-08-30T09:28:00;100341.66;;;19.70;100.00
58534;BME280;44109;52.398;7.024;2023-08-30T09:30:27;100345.28;;;19.55;100.00
58534;BME280;44109;52.398;7.024;2023-08-30T09:33:00;100345.81;;;19.33;100.00
58534;BME280;44109;52.398;7.024;2023-08-30T09:35:29;100339.59;;;19.25;100.00
58534;BME280;44109;52.398;7.024;2023-08-30T09:37:57;100340.22;;;19.00;100.00
58534;BME280;44109;52.398;7.024;2023-08-30T09:40:25;100350.25;;;18.85;100.00
58534;BME280;44109;52.398;7.024;2023-08-30T09:42:53;100338.59;;;18.67;100.00
58534;BME280;44109;52.398;7.024;2023-08-30T09:45:23;100341.03;;;18.65;100.00
58534;BME280;44109;52.398;7.024;2023-08-30T09:47:51;100338.03;;;18.56;100.00
58534;BME280;44109;52.398;7.024;2023-08-30T09:50:20;100336.41;;;18.38;100.00
58534;BME280;44109;52.398;7.024;2023-08-30T09:52:50;100334.31;;;18.42;100.00
58534;BME280;44109;52.398;7.024;2023-08-30T09:55:19;100332.03;;;18.37;100.00
58534;BME280;44109;52.398;7.024;2023-08-30T09:57:48;100334.41;;;18.39;100.00
58534;BME280;44109;52.398;7.024;2023-08-30T10:00:17;100327.59;;;18.40;100.00
58534;BME280;44109;52.398;7.024;2023-08-30T10:02:46;100330.28;;;18.43;100.00
58534;BME280;44109;52.398;7.024;2023-08-30T10:05:15;100324.53;;;18.50;100.00
58534;BME280;44109;52.398;7.024;2023-08-30T10:07:44;100312.31;;;18.57;100.00
58534;BME280;44109;52.398;7.024;2023-08-30T10:10:13;100314.53;;;18.66;100.00
58534;BME280;44109;52.398;7.024;2023-08-30T10:12:41;100304.56;;;18.81;100.00
58534;BME280;44109;52.398;7.024;2023-08-30T10:15:13;100300.63;;;18.95;100.00
58534;BME280;44109;52.398;7.024;2023-08-30T10:17:45;100298.06;;;19.00;100.00
58534;BME280;44109;52.398;7.024;2023-08-30T10:20:15;100293.75;;;18.96;100.00
58534;BME280;44109;52.398;7.024;2023-08-30T10:22:43;100290.41;;;19.01;100.00
58534;BME280;44109;52.398;7.024;2023-08-30T10:25:16;100291.75;;;19.13;100.00
58534;BME280;44109;52.398;7.024;2023-08-30T10:27:49;100292.94;;;19.28;100.00
58534;BME280;44109;52.398;7.024;2023-08-30T10:30:19;100292.47;;;19.46;100.00
58534;BME280;44109;52.398;7.024;2023-08-30T10:32:50;100284.03;;;19.46;100.00
58534;BME280;44109;52.398;7.024;2023-08-30T10:35:18;100291.66;;;19.45;100.00
58534;BME280;44109;52.398;7.024;2023-08-30T10:37:54;100288.50;;;19.43;100.00
58534;BME280;44109;52.398;7.024;2023-08-30T10:40:22;100288.50;;;19.43;100.00
58534;BME280;44109;52.398;7.024;2023-08-30T10:42:59;100288.72;;;19.36;100.00
58534;BME280;44109;52.398;7.024;2023-08-30T10:45:27;100286.91;;;19.42;100.00
58534;BME280;44109;52.398;7.024;2023-08-30T10:47:59;100277.38;;;19.23;100.00
58534;BME280;44109;52.398;7.024;2023-08-30T10:50:28;100280.56;;;19.09;100.00
58534;BME280;44109;52.398;7.024;2023-08-30T10:52:57;100286.44;;;18.98;100.00
58534;BME280;44109;52.398;7.024;2023-08-30T10:55:25;100273.28;;;18.63;100.00
58534;BME280;44109;52.398;7.024;2023-08-30T10:58:00;100278.91;;;18.79;100.00
58534;BME280;44109;52.398;7.024;2023-08-30T11:00:30;100278.91;;;18.79;100.00
58534;BME280;44109;52.398;7.024;2023-08-30T11:03:01;100272.38;;;18.49;100.00
58534;BME280;44109;52.398;7.024;2023-08-30T11:05:29;100265.69;;;18.43;100.00
58534;BME280;44109;52.398;7.024;2023-08-30T11:07:57;100264.72;;;18.34;100.00
58534;BME280;44109;52.398;7.024;2023-08-30T11:10:25;100264.78;;;18.30;100.00
58534;BME280;44109;52.398;7.024;2023-08-30T11:12:53;100266.03;;;18.29;100.00
58534;BME280;44109;52.398;7.024;2023-08-30T11:15:26;100264.44;;;18.28;100.00
58534;BME280;44109;52.398;7.024;2023-08-30T11:18:03;100262.81;;;18.11;100.00
58534;BME280;44109;52.398;7.024;2023-08-30T11:20:32;100253.09;;;18.15;100.00
58534;BME280;44109;52.398;7.024;2023-08-30T11:23:02;100258.75;;;18.32;100.00
58534;BME280;44109;52.398;7.024;2023-08-30T11:25:30;100248.47;;;18.25;100.00
58534;BME280;44109;52.398;7.024;2023-08-30T11:28:01;100253.47;;;18.34;100.00
58534;BME280;44109;52.398;7.024;2023-08-30T11:30:30;100256.53;;;18.23;100.00
58534;BME280;44109;52.398;7.024;2023-08-30T11:32:57;100253.34;;;18.05;100.00
58534;BME280;44109;52.398;7.024;2023-08-30T11:35:26;100249.16;;;18.13;100.00
58534;BME280;44109;52.398;7.024;2023-08-30T11:37:54;100250.16;;;18.03;100.00
58534;BME280;44109;52.398;7.024;2023-08-30T11:40:22;100242.47;;;18.07;100.00
58534;BME280;44109;52.398;7.024;2023-08-30T11:42:50;100234.63;;;17.98;100.00
58534;BME280;44109;52.398;7.024;2023-08-30T11:45:18;100243.69;;;18.06;100.00
58534;BME280;44109;52.398;7.024;2023-08-30T11:47:46;100241.28;;;17.88;100.00
58534;BME280;44109;52.398;7.024;2023-08-30T11:50:14;100234.00;;;17.70;100.00
58534;BME280;44109;52.398;7.024;2023-08-30T11:52:43;100237.25;;;17.69;100.00
58534;BME280;44109;52.398;7.024;2023-08-30T11:55:11;100232.78;;;17.52;100.00
58534;BME280;44109;52.398;7.024;2023-08-30T11:57:43;100220.66;;;17.58;100.00
58534;BME280;44109;52.398;7.024;2023-08-30T12:00:12;100228.03;;;17.48;100.00
58534;BME280;44109;52.398;7.024;2023-08-30T12:02:41;100225.00;;;17.39;100.00
58534;BME280;44109;52.398;7.024;2023-08-30T12:05:11;100226.81;;;17.49;100.00
58534;BME280;44109;52.398;7.024;2023-08-30T12:07:39;100224.75;;;17.54;100.00
58534;BME280;44109;52.398;7.024;2023-08-30T12:10:10;100228.91;;;17.65;100.00
58534;BME280;44109;52.398;7.024;2023-08-30T12:12:44;100227.91;;;17.56;100.00
58534;BME280;44109;52.398;7.024;2023-08-30T12:15:14;100228.97;;;17.62;100.00
58534;BME280;44109;52.398;7.024;2023-08-30T12:17:42;100220.84;;;17.67;100.00
58534;BME280;44109;52.398;7.024;2023-08-30T12:20:16;100218.31;;;17.73;100.00
58534;BME280;44109;52.398;7.024;2023-08-30T12:22:46;100220.50;;;17.85;100.00
58534;BME280;44109;52.398;7.024;2023-08-30T12:25:19;100212.97;;;17.98;100.00
58534;BME280;44109;52.398;7.024;2023-08-30T12:27:49;100207.31;;;18.35;100.00
58534;BME280;44109;52.398;7.024;2023-08-30T12:30:17;100214.63;;;18.65;100.00
58534;BME280;44109;52.398;7.024;2023-08-30T12:32:45;100204.63;;;18.80;100.00
58534;BME280;44109;52.398;7.024;2023-08-30T12:35:14;100213.50;;;18.95;100.00
58534;BME280;44109;52.398;7.024;2023-08-30T12:37:42;100202.63;;;18.81;100.00
58534;BME280;44109;52.398;7.024;2023-08-30T12:40:11;100213.72;;;19.17;100.00
58534;BME280;44109;52.398;7.024;2023-08-30T12:42:41;100205.66;;;19.32;100.00
58534;BME280;44109;52.398;7.024;2023-08-30T12:45:09;100199.25;;;19.44;100.00
58534;BME280;44109;52.398;7.024;2023-08-30T12:47:36;100205.47;;;19.68;100.00
58534;BME280;44109;52.398;7.024;2023-08-30T12:50:05;100201.19;;;19.89;100.00